Terminal Aerodrome Forecast
Issued by NWS

Home | Current Version | Previous Version | Text Only | Print | Product List | Glossary On
Versions: 1 2 3 4 5 6 7 8 9 10 11 12 13 14
000
FTUS44 KLIX 042329
TAFGPT
TAF
KGPT 042329Z 0500/0524 34009KT P6SM FEW045
     FM050200 VRB03KT 6SM TSRA BKN090CB
     FM050600 20005KT P6SM VCTS BKN150CB
     FM051200 22004KT 6SM SHRA BKN070
     FM052300 20008KT 6SM SHRA BKN090=

USA.gov is the U.S. government's official web portal to all federal, state and local government web resources and services.